sensor_id;sensor_type;location;lat;lon;timestamp;P1;durP1;ratioP1;P2;durP2;ratioP2
6135;SDS011;24008;42.664;23.372;2023-02-15T00:01:31;59.37;;;29.73;;
6135;SDS011;24008;42.664;23.372;2023-02-15T00:04:00;62.00;;;31.20;;
6135;SDS011;24008;42.664;23.372;2023-02-15T00:06:26;58.80;;;30.47;;
6135;SDS011;24008;42.664;23.372;2023-02-15T00:08:53;62.93;;;31.70;;
6135;SDS011;24008;42.664;23.372;2023-02-15T00:11:21;56.10;;;30.10;;
6135;SDS011;24008;42.664;23.372;2023-02-15T00:14:01;59.60;;;30.90;;
6135;SDS011;24008;42.664;23.372;2023-02-15T00:16:28;68.00;;;31.80;;
6135;SDS011;24008;42.664;23.372;2023-02-15T00:18:57;64.37;;;30.50;;
6135;SDS011;24008;42.664;23.372;2023-02-15T00:21:28;57.13;;;29.43;;
6135;SDS011;24008;42.664;23.372;2023-02-15T00:23:55;58.83;;;30.33;;
6135;SDS011;24008;42.664;23.372;2023-02-15T00:26:22;63.87;;;30.47;;
6135;SDS011;24008;42.664;23.372;2023-02-15T00:28:49;58.97;;;30.43;;
6135;SDS011;24008;42.664;23.372;2023-02-15T00:31:16;59.50;;;31.47;;
6135;SDS011;24008;42.664;23.372;2023-02-15T00:33:43;63.20;;;30.70;;
6135;SDS011;24008;42.664;23.372;2023-02-15T00:36:10;58.03;;;31.37;;
6135;SDS011;24008;42.664;23.372;2023-02-15T00:38:38;64.63;;;31.03;;
6135;SDS011;24008;42.664;23.372;2023-02-15T00:41:06;59.10;;;30.77;;
6135;SDS011;24008;42.664;23.372;2023-02-15T00:43:34;61.10;;;31.63;;
6135;SDS011;24008;42.664;23.372;2023-02-15T00:46:02;55.00;;;29.27;;
6135;SDS011;24008;42.664;23.372;2023-02-15T00:48:30;58.03;;;30.50;;
6135;SDS011;24008;42.664;23.372;2023-02-15T00:50:57;59.53;;;30.70;;
6135;SDS011;24008;42.664;23.372;2023-02-15T00:53:26;60.13;;;31.10;;
6135;SDS011;24008;42.664;23.372;2023-02-15T00:55:55;62.00;;;30.47;;
6135;SDS011;24008;42.664;23.372;2023-02-15T00:58:22;56.03;;;29.70;;
6135;SDS011;24008;42.664;23.372;2023-02-15T01:00:50;61.27;;;30.73;;
6135;SDS011;24008;42.664;23.372;2023-02-15T01:03:18;62.73;;;32.07;;
6135;SDS011;24008;42.664;23.372;2023-02-15T01:05:46;62.57;;;32.13;;
6135;SDS011;24008;42.664;23.372;2023-02-15T01:08:13;60.77;;;30.67;;
6135;SDS011;24008;42.664;23.372;2023-02-15T01:10:41;60.40;;;30.33;;
6135;SDS011;24008;42.664;23.372;2023-02-15T01:13:10;56.43;;;30.57;;
6135;SDS011;24008;42.664;23.372;2023-02-15T01:15:37;58.13;;;29.50;;
6135;SDS011;24008;42.664;23.372;2023-02-15T01:18:03;58.93;;;29.77;;
6135;SDS011;24008;42.664;23.372;2023-02-15T01:20:33;59.03;;;30.30;;
6135;SDS011;24008;42.664;23.372;2023-02-15T01:23:02;55.93;;;28.93;;
6135;SDS011;24008;42.664;23.372;2023-02-15T01:25:29;55.47;;;29.43;;
6135;SDS011;24008;42.664;23.372;2023-02-15T01:27:55;57.70;;;29.17;;
6135;SDS011;24008;42.664;23.372;2023-02-15T01:30:24;56.43;;;29.03;;
6135;SDS011;24008;42.664;23.372;2023-02-15T01:32:50;61.57;;;30.27;;
6135;SDS011;24008;42.664;23.372;2023-02-15T01:35:17;58.33;;;30.73;;
6135;SDS011;24008;42.664;23.372;2023-02-15T01:37:44;60.10;;;30.20;;
6135;SDS011;24008;42.664;23.372;2023-02-15T01:40:12;57.70;;;29.63;;
6135;SDS011;24008;42.664;23.372;2023-02-15T01:42:40;55.77;;;28.93;;
6135;SDS011;24008;42.664;23.372;2023-02-15T01:45:14;58.97;;;29.00;;
6135;SDS011;24008;42.664;23.372;2023-02-15T01:47:49;53.03;;;28.77;;
6135;SDS011;24008;42.664;23.372;2023-02-15T01:50:19;58.10;;;30.00;;
6135;SDS011;24008;42.664;23.372;2023-02-15T01:52:50;56.73;;;29.80;;
6135;SDS011;24008;42.664;23.372;2023-02-15T01:55:22;56.20;;;30.07;;
6135;SDS011;24008;42.664;23.372;2023-02-15T01:57:51;54.03;;;28.97;;
6135;SDS011;24008;42.664;23.372;2023-02-15T02:00:18;60.13;;;29.77;;
6135;SDS011;24008;42.664;23.372;2023-02-15T02:02:48;54.73;;;28.93;;
6135;SDS011;24008;42.664;23.372;2023-02-15T02:05:19;56.00;;;28.93;;
6135;SDS011;24008;42.664;23.372;2023-02-15T02:07:46;58.47;;;29.13;;
6135;SDS011;24008;42.664;23.372;2023-02-15T02:10:18;54.83;;;29.37;;
6135;SDS011;24008;42.664;23.372;2023-02-15T02:12:47;55.83;;;30.10;;
6135;SDS011;24008;42.664;23.372;2023-02-15T02:15:17;56.20;;;28.33;;
6135;SDS011;24008;42.664;23.372;2023-02-15T02:17:51;57.47;;;27.90;;
6135;SDS011;24008;42.664;23.372;2023-02-15T02:20:30;56.40;;;30.40;;
6135;SDS011;24008;42.664;23.372;2023-02-15T02:26:03;52.67;;;28.20;;
6135;SDS011;24008;42.664;23.372;2023-02-15T02:28:53;56.87;;;29.00;;
6135;SDS011;24008;42.664;23.372;2023-02-15T02:31:43;55.83;;;28.53;;
6135;SDS011;24008;42.664;23.372;2023-02-15T02:34:25;54.00;;;28.13;;
6135;SDS011;24008;42.664;23.372;2023-02-15T02:36:57;55.67;;;28.60;;
6135;SDS011;24008;42.664;23.372;2023-02-15T02:39:31;53.10;;;27.67;;
6135;SDS011;24008;42.664;23.372;2023-02-15T02:42:05;55.27;;;28.47;;
6135;SDS011;24008;42.664;23.372;2023-02-15T02:44:40;54.57;;;29.17;;
6135;SDS011;24008;42.664;23.372;2023-02-15T02:47:11;54.50;;;28.63;;
6135;SDS011;24008;42.664;23.372;2023-02-15T02:49:43;58.60;;;29.33;;
6135;SDS011;24008;42.664;23.372;2023-02-15T02:55:05;52.13;;;27.93;;
6135;SDS011;24008;42.664;23.372;2023-02-15T02:57:35;54.37;;;28.73;;
6135;SDS011;24008;42.664;23.372;2023-02-15T03:00:07;51.93;;;28.77;;
6135;SDS011;24008;42.664;23.372;2023-02-15T03:02:36;53.33;;;27.53;;
6135;SDS011;24008;42.664;23.372;2023-02-15T03:05:09;52.10;;;28.03;;
6135;SDS011;24008;42.664;23.372;2023-02-15T03:07:39;53.13;;;27.80;;
6135;SDS011;24008;42.664;23.372;2023-02-15T03:10:08;54.20;;;26.83;;
6135;SDS011;24008;42.664;23.372;2023-02-15T03:12:36;53.83;;;28.37;;
6135;SDS011;24008;42.664;23.372;2023-02-15T03:15:06;52.03;;;28.07;;
6135;SDS011;24008;42.664;23.372;2023-02-15T03:17:37;55.83;;;28.07;;
6135;SDS011;24008;42.664;23.372;2023-02-15T03:20:11;48.17;;;26.67;;
6135;SDS011;24008;42.664;23.372;2023-02-15T03:22:42;52.23;;;28.47;;
6135;SDS011;24008;42.664;23.372;2023-02-15T03:25:15;51.23;;;26.20;;
6135;SDS011;24008;42.664;23.372;2023-02-15T03:27:46;50.33;;;26.53;;
6135;SDS011;24008;42.664;23.372;2023-02-15T03:30:16;48.50;;;25.97;;
6135;SDS011;24008;42.664;23.372;2023-02-15T03:32:47;54.87;;;28.17;;
6135;SDS011;24008;42.664;23.372;2023-02-15T03:35:18;50.40;;;25.93;;
6135;SDS011;24008;42.664;23.372;2023-02-15T03:37:48;49.77;;;26.40;;
6135;SDS011;24008;42.664;23.372;2023-02-15T03:40:18;49.27;;;26.93;;
6135;SDS011;24008;42.664;23.372;2023-02-15T03:43:08;49.27;;;26.53;;
6135;SDS011;24008;42.664;23.372;2023-02-15T03:45:42;47.07;;;25.17;;
6135;SDS011;24008;42.664;23.372;2023-02-15T03:48:21;54.20;;;27.37;;
6135;SDS011;24008;42.664;23.372;2023-02-15T03:50:52;49.60;;;26.20;;
6135;SDS011;24008;42.664;23.372;2023-02-15T03:53:39;47.33;;;25.37;;
6135;SDS011;24008;42.664;23.372;2023-02-15T03:56:08;47.73;;;25.63;;
6135;SDS011;24008;42.664;23.372;2023-02-15T03:58:34;47.03;;;26.43;;
6135;SDS011;24008;42.664;23.372;2023-02-15T04:01:27;45.67;;;24.60;;
6135;SDS011;24008;42.664;23.372;2023-02-15T04:04:18;48.03;;;25.83;;
6135;SDS011;24008;42.664;23.372;2023-02-15T04:06:48;51.03;;;26.10;;
6135;SDS011;24008;42.664;23.372;2023-02-15T04:09:15;48.13;;;25.63;;
6135;SDS011;24008;42.664;23.372;2023-02-15T04:11:59;48.73;;;25.90;;
6135;SDS011;24008;42.664;23.372;2023-02-15T04:14:26;49.47;;;26.37;;
6135;SDS011;24008;42.664;23.372;2023-02-15T04:17:10;49.73;;;27.10;;
6135;SDS011;24008;42.664;23.372;2023-02-15T04:19:37;47.73;;;26.20;;
6135;SDS011;24008;42.664;23.372;2023-02-15T04:22:22;47.47;;;25.37;;
6135;SDS011;24008;42.664;23.372;2023-02-15T04:25:06;48.20;;;26.53;;
6135;SDS011;24008;42.664;23.372;2023-02-15T04:27:36;43.87;;;25.20;;
6135;SDS011;24008;42.664;23.372;2023-02-15T04:30:05;46.63;;;25.60;;
6135;SDS011;24008;42.664;23.372;2023-02-15T04:32:33;49.73;;;25.20;;
6135;SDS011;24008;42.664;23.372;2023-02-15T04:35:00;50.17;;;27.57;;
6135;SDS011;24008;42.664;23.372;2023-02-15T04:37:28;51.33;;;27.20;;
6135;SDS011;24008;42.664;23.372;2023-02-15T04:39:55;47.43;;;25.80;;
6135;SDS011;24008;42.664;23.372;2023-02-15T04:42:23;50.57;;;25.67;;
6135;SDS011;24008;42.664;23.372;2023-02-15T04:44:50;50.27;;;26.87;;
6135;SDS011;24008;42.664;23.372;2023-02-15T04:47:17;47.90;;;26.27;;
6135;SDS011;24008;42.664;23.372;2023-02-15T04:49:43;49.87;;;26.33;;
6135;SDS011;24008;42.664;23.372;2023-02-15T04:52:10;49.63;;;26.70;;
6135;SDS011;24008;42.664;23.372;2023-02-15T04:54:38;45.20;;;25.43;;
6135;SDS011;24008;42.664;23.372;2023-02-15T04:57:05;46.93;;;26.20;;
6135;SDS011;24008;42.664;23.372;2023-02-15T04:59:32;51.03;;;26.47;;
6135;SDS011;24008;42.664;23.372;2023-02-15T05:01:59;48.50;;;25.40;;
6135;SDS011;24008;42.664;23.372;2023-02-15T05:04:25;52.97;;;26.87;;
6135;SDS011;24008;42.664;23.372;2023-02-15T05:06:52;51.23;;;28.07;;
6135;SDS011;24008;42.664;23.372;2023-02-15T05:09:19;50.43;;;26.37;;
6135;SDS011;24008;42.664;23.372;2023-02-15T05:11:47;48.30;;;26.27;;
6135;SDS011;24008;42.664;23.372;2023-02-15T05:14:14;47.93;;;25.50;;
6135;SDS011;24008;42.664;23.372;2023-02-15T05:16:41;49.73;;;25.63;;
6135;SDS011;24008;42.664;23.372;2023-02-15T05:19:08;47.33;;;25.77;;
6135;SDS011;24008;42.664;23.372;2023-02-15T05:21:34;49.00;;;27.60;;
6135;SDS011;24008;42.664;23.372;2023-02-15T05:24:01;48.47;;;25.80;;
6135;SDS011;24008;42.664;23.372;2023-02-15T05:26:50;45.13;;;25.80;;
6135;SDS011;24008;42.664;23.372;2023-02-15T05:29:34;46.90;;;25.60;;
6135;SDS011;24008;42.664;23.372;2023-02-15T05:32:01;48.53;;;25.47;;
6135;SDS011;24008;42.664;23.372;2023-02-15T05:34:29;49.60;;;26.40;;
6135;SDS011;24008;42.664;23.372;2023-02-15T05:36:56;47.57;;;25.80;;
6135;SDS011;24008;42.664;23.372;2023-02-15T05:39:22;47.67;;;25.87;;
6135;SDS011;24008;42.664;23.372;2023-02-15T05:41:50;48.10;;;26.20;;
6135;SDS011;24008;42.664;23.372;2023-02-15T05:44:17;47.50;;;26.20;;
6135;SDS011;24008;42.664;23.372;2023-02-15T05:46:44;48.27;;;26.10;;
6135;SDS011;24008;42.664;23.372;2023-02-15T05:49:11;48.10;;;26.40;;
6135;SDS011;24008;42.664;23.372;2023-02-15T05:51:37;50.07;;;26.87;;
6135;SDS011;24008;42.664;23.372;2023-02-15T05:54:04;51.60;;;27.40;;
6135;SDS011;24008;42.664;23.372;2023-02-15T05:56:31;47.60;;;25.57;;
6135;SDS011;24008;42.664;23.372;2023-02-15T05:58:59;49.20;;;26.57;;
6135;SDS011;24008;42.664;23.372;2023-02-15T06:01:26;50.00;;;26.23;;
6135;SDS011;24008;42.664;23.372;2023-02-15T06:03:52;47.03;;;24.77;;
6135;SDS011;24008;42.664;23.372;2023-02-15T06:06:20;49.47;;;25.63;;
6135;SDS011;24008;42.664;23.372;2023-02-15T06:08:47;48.97;;;25.67;;
6135;SDS011;24008;42.664;23.372;2023-02-15T06:11:14;49.10;;;26.30;;
6135;SDS011;24008;42.664;23.372;2023-02-15T06:13:41;46.87;;;25.00;;
6135;SDS011;24008;42.664;23.372;2023-02-15T06:16:09;47.67;;;25.60;;
6135;SDS011;24008;42.664;23.372;2023-02-15T06:18:35;51.17;;;26.90;;
6135;SDS011;24008;42.664;23.372;2023-02-15T06:21:02;49.53;;;25.97;;
6135;SDS011;24008;42.664;23.372;2023-02-15T06:23:29;47.00;;;25.70;;
6135;SDS011;24008;42.664;23.372;2023-02-15T06:25:56;45.17;;;24.67;;
6135;SDS011;24008;42.664;23.372;2023-02-15T06:28:22;44.37;;;24.23;;
6135;SDS011;24008;42.664;23.372;2023-02-15T06:30:51;46.80;;;25.03;;
6135;SDS011;24008;42.664;23.372;2023-02-15T06:33:21;47.83;;;25.20;;
6135;SDS011;24008;42.664;23.372;2023-02-15T06:35:48;46.23;;;24.90;;
6135;SDS011;24008;42.664;23.372;2023-02-15T06:38:15;45.47;;;24.60;;
6135;SDS011;24008;42.664;23.372;2023-02-15T06:40:42;44.87;;;24.40;;
6135;SDS011;24008;42.664;23.372;2023-02-15T06:43:09;44.70;;;24.20;;
6135;SDS011;24008;42.664;23.372;2023-02-15T06:45:35;44.67;;;23.30;;
6135;SDS011;24008;42.664;23.372;2023-02-15T06:48:02;45.33;;;24.87;;
6135;SDS011;24008;42.664;23.372;2023-02-15T06:50:33;44.27;;;24.10;;
6135;SDS011;24008;42.664;23.372;2023-02-15T06:53:00;44.70;;;24.47;;
6135;SDS011;24008;42.664;23.372;2023-02-15T06:55:27;41.87;;;23.30;;
6135;SDS011;24008;42.664;23.372;2023-02-15T06:57:53;42.67;;;23.47;;
6135;SDS011;24008;42.664;23.372;2023-02-15T07:00:20;39.17;;;22.77;;
6135;SDS011;24008;42.664;23.372;2023-02-15T07:02:48;41.07;;;22.27;;
6135;SDS011;24008;42.664;23.372;2023-02-15T07:05:21;45.73;;;23.47;;
6135;SDS011;24008;42.664;23.372;2023-02-15T07:07:50;40.60;;;23.00;;
6135;SDS011;24008;42.664;23.372;2023-02-15T07:10:17;44.13;;;24.47;;
6135;SDS011;24008;42.664;23.372;2023-02-15T07:12:46;40.00;;;22.73;;
6135;SDS011;24008;42.664;23.372;2023-02-15T07:15:14;39.20;;;22.13;;
6135;SDS011;24008;42.664;23.372;2023-02-15T07:17:42;39.97;;;22.80;;
6135;SDS011;24008;42.664;23.372;2023-02-15T07:20:10;38.37;;;21.60;;
6135;SDS011;24008;42.664;23.372;2023-02-15T07:22:41;41.23;;;21.13;;
6135;SDS011;24008;42.664;23.372;2023-02-15T07:25:10;39.60;;;22.63;;
6135;SDS011;24008;42.664;23.372;2023-02-15T07:27:59;38.67;;;22.70;;
6135;SDS011;24008;42.664;23.372;2023-02-15T07:30:27;35.27;;;20.97;;
6135;SDS011;24008;42.664;23.372;2023-02-15T07:32:55;37.17;;;21.93;;
6135;SDS011;24008;42.664;23.372;2023-02-15T07:35:45;38.40;;;21.67;;
6135;SDS011;24008;42.664;23.372;2023-02-15T07:38:13;41.30;;;22.63;;
6135;SDS011;24008;42.664;23.372;2023-02-15T07:40:41;36.60;;;20.53;;
6135;SDS011;24008;42.664;23.372;2023-02-15T07:43:08;36.57;;;20.57;;
6135;SDS011;24008;42.664;23.372;2023-02-15T07:45:35;35.50;;;21.10;;
6135;SDS011;24008;42.664;23.372;2023-02-15T07:48:02;33.13;;;19.43;;
6135;SDS011;24008;42.664;23.372;2023-02-15T07:50:29;32.27;;;19.27;;
6135;SDS011;24008;42.664;23.372;2023-02-15T07:52:57;31.27;;;19.23;;
6135;SDS011;24008;42.664;23.372;2023-02-15T07:55:24;32.03;;;19.67;;
6135;SDS011;24008;42.664;23.372;2023-02-15T07:57:52;32.33;;;19.33;;
6135;SDS011;24008;42.664;23.372;2023-02-15T08:00:20;32.73;;;19.23;;
6135;SDS011;24008;42.664;23.372;2023-02-15T08:02:50;31.80;;;19.47;;
6135;SDS011;24008;42.664;23.372;2023-02-15T08:05:40;35.30;;;20.60;;
6135;SDS011;24008;42.664;23.372;2023-02-15T08:08:11;34.43;;;20.07;;
6135;SDS011;24008;42.664;23.372;2023-02-15T08:10:57;34.33;;;20.30;;
6135;SDS011;24008;42.664;23.372;2023-02-15T08:13:50;35.33;;;20.23;;
6135;SDS011;24008;42.664;23.372;2023-02-15T08:16:21;32.17;;;19.13;;
6135;SDS011;24008;42.664;23.372;2023-02-15T08:18:49;31.43;;;19.40;;
6135;SDS011;24008;42.664;23.372;2023-02-15T08:21:16;35.23;;;20.33;;
6135;SDS011;24008;42.664;23.372;2023-02-15T08:23:43;29.87;;;18.53;;
6135;SDS011;24008;42.664;23.372;2023-02-15T08:26:10;32.70;;;19.53;;
6135;SDS011;24008;42.664;23.372;2023-02-15T08:28:37;33.03;;;19.43;;
6135;SDS011;24008;42.664;23.372;2023-02-15T08:31:06;31.30;;;19.80;;
6135;SDS011;24008;42.664;23.372;2023-02-15T08:33:36;32.13;;;19.40;;
6135;SDS011;24008;42.664;23.372;2023-02-15T08:36:05;32.30;;;18.53;;
6135;SDS011;24008;42.664;23.372;2023-02-15T08:38:34;31.10;;;19.30;;
6135;SDS011;24008;42.664;23.372;2023-02-15T08:41:08;34.57;;;19.77;;
6135;SDS011;24008;42.664;23.372;2023-02-15T08:43:36;36.13;;;20.47;;
6135;SDS011;24008;42.664;23.372;2023-02-15T08:46:03;34.13;;;20.67;;
6135;SDS011;24008;42.664;23.372;2023-02-15T08:48:31;35.83;;;20.73;;
6135;SDS011;24008;42.664;23.372;2023-02-15T08:51:04;35.07;;;20.90;;
6135;SDS011;24008;42.664;23.372;2023-02-15T08:53:36;34.60;;;20.33;;
6135;SDS011;24008;42.664;23.372;2023-02-15T08:56:03;35.33;;;19.63;;
6135;SDS011;24008;42.664;23.372;2023-02-15T08:58:30;38.20;;;20.93;;
6135;SDS011;24008;42.664;23.372;2023-02-15T09:00:57;35.80;;;20.60;;
6135;SDS011;24008;42.664;23.372;2023-02-15T09:03:24;34.23;;;19.93;;
6135;SDS011;24008;42.664;23.372;2023-02-15T09:05:57;31.10;;;17.50;;
6135;SDS011;24008;42.664;23.372;2023-02-15T09:08:25;31.67;;;17.87;;
6135;SDS011;24008;42.664;23.372;2023-02-15T09:10:51;35.30;;;19.97;;
6135;SDS011;24008;42.664;23.372;2023-02-15T09:13:37;31.77;;;18.80;;
6135;SDS011;24008;42.664;23.372;2023-02-15T09:16:05;28.43;;;17.27;;
6135;SDS011;24008;42.664;23.372;2023-02-15T09:18:35;32.27;;;17.87;;
6135;SDS011;24008;42.664;23.372;2023-02-15T09:21:05;29.37;;;17.87;;
6135;SDS011;24008;42.664;23.372;2023-02-15T09:23:34;28.17;;;16.53;;
6135;SDS011;24008;42.664;23.372;2023-02-15T09:26:01;27.70;;;16.37;;
6135;SDS011;24008;42.664;23.372;2023-02-15T09:28:29;31.07;;;16.47;;
6135;SDS011;24008;42.664;23.372;2023-02-15T09:31:03;27.00;;;17.37;;
6135;SDS011;24008;42.664;23.372;2023-02-15T09:33:32;28.97;;;17.57;;
6135;SDS011;24008;42.664;23.372;2023-02-15T09:35:59;34.87;;;18.87;;
6135;SDS011;24008;42.664;23.372;2023-02-15T09:38:28;32.93;;;19.07;;
6135;SDS011;24008;42.664;23.372;2023-02-15T09:40:56;30.47;;;18.20;;
6135;SDS011;24008;42.664;23.372;2023-02-15T09:43:33;30.40;;;18.60;;
6135;SDS011;24008;42.664;23.372;2023-02-15T09:46:13;33.27;;;18.90;;
6135;SDS011;24008;42.664;23.372;2023-02-15T09:48:55;29.63;;;18.73;;
6135;SDS011;24008;42.664;23.372;2023-02-15T09:51:49;31.93;;;18.33;;
6135;SDS011;24008;42.664;23.372;2023-02-15T09:54:29;32.90;;;18.77;;
6135;SDS011;24008;42.664;23.372;2023-02-15T09:57:07;29.60;;;18.27;;
6135;SDS011;24008;42.664;23.372;2023-02-15T09:59:41;29.30;;;18.53;;
6135;SDS011;24008;42.664;23.372;2023-02-15T10:02:20;34.30;;;19.67;;
6135;SDS011;24008;42.664;23.372;2023-02-15T10:05:01;32.00;;;19.80;;
6135;SDS011;24008;42.664;23.372;2023-02-15T10:10:52;29.13;;;18.03;;
6135;SDS011;24008;42.664;23.372;2023-02-15T10:13:48;27.00;;;17.47;;
6135;SDS011;24008;42.664;23.372;2023-02-15T10:16:26;29.80;;;18.10;;
6135;SDS011;24008;42.664;23.372;2023-02-15T10:19:03;28.23;;;17.73;;
6135;SDS011;24008;42.664;23.372;2023-02-15T10:21:39;31.07;;;19.30;;
6135;SDS011;24008;42.664;23.372;2023-02-15T10:24:23;31.97;;;20.27;;
6135;SDS011;24008;42.664;23.372;2023-02-15T10:26:58;30.73;;;18.93;;
6135;SDS011;24008;42.664;23.372;2023-02-15T10:29:34;32.37;;;18.57;;
6135;SDS011;24008;42.664;23.372;2023-02-15T10:32:05;34.00;;;19.03;;
6135;SDS011;24008;42.664;23.372;2023-02-15T10:34:46;30.13;;;19.10;;
6135;SDS011;24008;42.664;23.372;2023-02-15T10:37:23;29.03;;;19.37;;
6135;SDS011;24008;42.664;23.372;2023-02-15T10:40:06;31.83;;;19.20;;
6135;SDS011;24008;42.664;23.372;2023-02-15T10:42:43;36.90;;;21.73;;
6135;SDS011;24008;42.664;23.372;2023-02-15T10:45:23;35.37;;;21.20;;
6135;SDS011;24008;42.664;23.372;2023-02-15T10:48:03;34.80;;;21.10;;
6135;SDS011;24008;42.664;23.372;2023-02-15T10:50:46;35.13;;;21.53;;
6135;SDS011;24008;42.664;23.372;2023-02-15T10:53:25;34.50;;;21.20;;
6135;SDS011;24008;42.664;23.372;2023-02-15T10:56:06;34.40;;;21.53;;
6135;SDS011;24008;42.664;23.372;2023-02-15T10:58:47;33.43;;;21.13;;
6135;SDS011;24008;42.664;23.372;2023-02-15T11:01:25;29.03;;;18.53;;
6135;SDS011;24008;42.664;23.372;2023-02-15T11:04:04;30.27;;;19.13;;
6135;SDS011;24008;42.664;23.372;2023-02-15T11:06:56;32.50;;;19.37;;
6135;SDS011;24008;42.664;23.372;2023-02-15T11:09:29;31.53;;;18.70;;
6135;SDS011;24008;42.664;23.372;2023-02-15T11:12:03;28.57;;;18.73;;
6135;SDS011;24008;42.664;23.372;2023-02-15T11:14:40;33.60;;;20.73;;
6135;SDS011;24008;42.664;23.372;2023-02-15T11:17:14;32.47;;;19.83;;
6135;SDS011;24008;42.664;23.372;2023-02-15T11:19:45;32.83;;;20.13;;
6135;SDS011;24008;42.664;23.372;2023-02-15T11:22:21;35.37;;;20.57;;
6135;SDS011;24008;42.664;23.372;2023-02-15T11:24:48;35.70;;;21.10;;
6135;SDS011;24008;42.664;23.372;2023-02-15T11:27:17;34.13;;;20.80;;
6135;SDS011;24008;42.664;23.372;2023-02-15T11:29:54;36.17;;;21.90;;
6135;SDS011;24008;42.664;23.372;2023-02-15T11:32:26;34.97;;;20.33;;
6135;SDS011;24008;42.664;23.372;2023-02-15T11:34:55;38.43;;;23.17;;
6135;SDS011;24008;42.664;23.372;2023-02-15T11:37:28;38.43;;;22.00;;
6135;SDS011;24008;42.664;23.372;2023-02-15T11:40:01;37.97;;;22.40;;
6135;SDS011;24008;42.664;23.372;2023-02-15T11:42:29;37.23;;;22.00;;
6135;SDS011;24008;42.664;23.372;2023-02-15T11:45:02;35.67;;;20.97;;
6135;SDS011;24008;42.664;23.372;2023-02-15T11:47:41;36.13;;;21.53;;
6135;SDS011;24008;42.664;23.372;2023-02-15T11:50:10;35.10;;;21.10;;
6135;SDS011;24008;42.664;23.372;2023-02-15T11:52:37;36.83;;;22.37;;
6135;SDS011;24008;42.664;23.372;2023-02-15T11:55:09;34.67;;;21.27;;
6135;SDS011;24008;42.664;23.372;2023-02-15T11:57:39;36.47;;;21.90;;
6135;SDS011;24008;42.664;23.372;2023-02-15T12:00:12;35.60;;;22.50;;
6135;SDS011;24008;42.664;23.372;2023-02-15T12:02:49;35.33;;;20.93;;
6135;SDS011;24008;42.664;23.372;2023-02-15T12:05:20;34.80;;;21.83;;
6135;SDS011;24008;42.664;23.372;2023-02-15T12:07:51;35.20;;;21.70;;
6135;SDS011;24008;42.664;23.372;2023-02-15T12:10:22;36.23;;;21.50;;
6135;SDS011;24008;42.664;23.372;2023-02-15T12:13:07;36.40;;;22.30;;
6135;SDS011;24008;42.664;23.372;2023-02-15T12:15:37;37.40;;;21.93;;
6135;SDS011;24008;42.664;23.372;2023-02-15T12:18:15;35.13;;;20.90;;
6135;SDS011;24008;42.664;23.372;2023-02-15T12:20:46;34.07;;;20.47;;
6135;SDS011;24008;42.664;23.372;2023-02-15T12:23:14;33.00;;;19.80;;
6135;SDS011;24008;42.664;23.372;2023-02-15T12:25:41;33.23;;;20.00;;
6135;SDS011;24008;42.664;23.372;2023-02-15T12:28:20;34.00;;;20.07;;
6135;SDS011;24008;42.664;23.372;2023-02-15T12:30:53;33.97;;;20.40;;
6135;SDS011;24008;42.664;23.372;2023-02-15T12:33:24;34.97;;;19.63;;
6135;SDS011;24008;42.664;23.372;2023-02-15T12:35:55;38.10;;;20.93;;
6135;SDS011;24008;42.664;23.372;2023-02-15T12:38:26;34.27;;;19.73;;
6135;SDS011;24008;42.664;23.372;2023-02-15T12:40:58;38.73;;;21.27;;
6135;SDS011;24008;42.664;23.372;2023-02-15T12:43:27;37.37;;;21.20;;
6135;SDS011;24008;42.664;23.372;2023-02-15T12:46:19;35.30;;;20.83;;
6135;SDS011;24008;42.664;23.372;2023-02-15T12:49:04;36.60;;;21.37;;
6135;SDS011;24008;42.664;23.372;2023-02-15T12:51:43;36.03;;;21.87;;
6135;SDS011;24008;42.664;23.372;2023-02-15T12:59:56;35.00;;;21.43;;
6135;SDS011;24008;42.664;23.372;2023-02-15T13:02:27;34.63;;;21.10;;
6135;SDS011;24008;42.664;23.372;2023-02-15T13:04:56;36.53;;;21.83;;
6135;SDS011;24008;42.664;23.372;2023-02-15T13:07:30;36.83;;;20.93;;
6135;SDS011;24008;42.664;23.372;2023-02-15T13:09:58;37.00;;;22.53;;
6135;SDS011;24008;42.664;23.372;2023-02-15T13:12:25;36.23;;;21.50;;
6135;SDS011;24008;42.664;23.372;2023-02-15T13:14:55;45.93;;;25.80;;
6135;SDS011;24008;42.664;23.372;2023-02-15T13:17:25;39.63;;;20.87;;
6135;SDS011;24008;42.664;23.372;2023-02-15T13:19:57;41.00;;;22.10;;
6135;SDS011;24008;42.664;23.372;2023-02-15T13:22:28;34.90;;;21.37;;
6135;SDS011;24008;42.664;23.372;2023-02-15T13:25:02;34.27;;;20.43;;
6135;SDS011;24008;42.664;23.372;2023-02-15T13:27:50;39.23;;;21.97;;
6135;SDS011;24008;42.664;23.372;2023-02-15T13:30:22;35.03;;;21.03;;
6135;SDS011;24008;42.664;23.372;2023-02-15T13:32:53;37.67;;;22.00;;
6135;SDS011;24008;42.664;23.372;2023-02-15T13:35:24;37.37;;;22.60;;
6135;SDS011;24008;42.664;23.372;2023-02-15T13:38:06;40.00;;;22.30;;
6135;SDS011;24008;42.664;23.372;2023-02-15T13:40:45;37.30;;;22.70;;
6135;SDS011;24008;42.664;23.372;2023-02-15T13:43:24;43.00;;;23.87;;
6135;SDS011;24008;42.664;23.372;2023-02-15T13:46:07;43.87;;;25.40;;
6135;SDS011;24008;42.664;23.372;2023-02-15T13:48:50;39.67;;;23.00;;
6135;SDS011;24008;42.664;23.372;2023-02-15T13:51:25;37.97;;;22.13;;
6135;SDS011;24008;42.664;23.372;2023-02-15T13:54:11;43.57;;;22.40;;
6135;SDS011;24008;42.664;23.372;2023-02-15T13:57:00;36.50;;;20.17;;
6135;SDS011;24008;42.664;23.372;2023-02-15T13:59:46;36.27;;;21.37;;
6135;SDS011;24008;42.664;23.372;2023-02-15T14:02:30;38.63;;;21.70;;
6135;SDS011;24008;42.664;23.372;2023-02-15T14:05:29;40.50;;;21.97;;
6135;SDS011;24008;42.664;23.372;2023-02-15T14:08:08;40.90;;;22.57;;
6135;SDS011;24008;42.664;23.372;2023-02-15T14:10:46;35.37;;;21.13;;
6135;SDS011;24008;42.664;23.372;2023-02-15T14:16:24;37.87;;;23.30;;
6135;SDS011;24008;42.664;23.372;2023-02-15T14:19:02;37.37;;;21.73;;
6135;SDS011;24008;42.664;23.372;2023-02-15T14:21:41;39.13;;;22.23;;
6135;SDS011;24008;42.664;23.372;2023-02-15T14:24:18;37.27;;;22.13;;
6135;SDS011;24008;42.664;23.372;2023-02-15T14:26:56;38.77;;;22.03;;
6135;SDS011;24008;42.664;23.372;2023-02-15T14:29:47;41.90;;;23.13;;
6135;SDS011;24008;42.664;23.372;2023-02-15T14:32:18;41.63;;;22.63;;
6135;SDS011;24008;42.664;23.372;2023-02-15T14:34:51;36.57;;;22.07;;
6135;SDS011;24008;42.664;23.372;2023-02-15T14:37:24;36.93;;;22.30;;
6135;SDS011;24008;42.664;23.372;2023-02-15T14:39:59;39.97;;;22.67;;
6135;SDS011;24008;42.664;23.372;2023-02-15T14:42:49;41.23;;;22.83;;
6135;SDS011;24008;42.664;23.372;2023-02-15T14:45:21;40.17;;;22.67;;
6135;SDS011;24008;42.664;23.372;2023-02-15T14:47:57;39.63;;;22.73;;
6135;SDS011;24008;42.664;23.372;2023-02-15T14:50:42;38.80;;;23.37;;
6135;SDS011;24008;42.664;23.372;2023-02-15T14:53:16;40.90;;;23.93;;
6135;SDS011;24008;42.664;23.372;2023-02-15T14:58:55;44.63;;;23.90;;
6135;SDS011;24008;42.664;23.372;2023-02-15T15:01:25;40.87;;;23.67;;
6135;SDS011;24008;42.664;23.372;2023-02-15T15:03:54;38.53;;;23.23;;
6135;SDS011;24008;42.664;23.372;2023-02-15T15:06:25;39.10;;;23.03;;
6135;SDS011;24008;42.664;23.372;2023-02-15T15:08:58;39.30;;;23.23;;
6135;SDS011;24008;42.664;23.372;2023-02-15T15:11:45;45.53;;;24.87;;